createdAt,value
2017-12-22T00:01:20.478Z,19.72
2017-12-22T00:03:48.943Z,19.75
2017-12-22T00:06:17.490Z,19.73
2017-12-22T00:08:46.362Z,19.72
2017-12-22T00:11:14.708Z,19.72
2017-12-22T00:13:42.996Z,19.70
2017-12-22T00:16:11.437Z,19.73
2017-12-22T00:18:39.731Z,19.73
2017-12-22T00:21:08.059Z,19.71
2017-12-22T00:23:36.356Z,19.71
2017-12-22T00:26:04.681Z,19.72
2017-12-22T00:28:33.199Z,19.71
2017-12-22T00:31:01.667Z,19.71
2017-12-22T00:33:29.951Z,19.72
2017-12-22T00:35:58.243Z,19.71
2017-12-22T00:38:26.532Z,19.72
2017-12-22T00:40:54.835Z,19.73
2017-12-22T00:43:23.143Z,19.72
2017-12-22T00:46:00.371Z,19.74
2017-12-22T00:48:28.663Z,19.73
2017-12-22T00:50:56.955Z,19.70
2017-12-22T00:53:25.226Z,19.70
2017-12-22T00:55:53.542Z,19.71
2017-12-22T00:58:21.817Z,19.71
2017-12-22T01:00:50.102Z,19.73
2017-12-22T01:03:18.367Z,19.72
2017-12-22T01:05:46.655Z,19.70
2017-12-22T01:08:15.267Z,19.70
2017-12-22T01:10:43.758Z,19.70
2017-12-22T01:13:12.015Z,19.71
2017-12-22T01:15:44.623Z,19.70
2017-12-22T01:19:16.522Z,19.67
2017-12-22T01:21:44.928Z,19.73
2017-12-22T01:24:14.293Z,19.71
2017-12-22T01:26:42.771Z,19.72
2017-12-22T01:29:11.026Z,19.68
2017-12-22T01:31:39.342Z,19.72
2017-12-22T01:34:07.594Z,19.72
2017-12-22T01:36:35.931Z,19.72
2017-12-22T01:39:04.467Z,19.73
2017-12-22T01:41:32.798Z,19.70
2017-12-22T01:44:01.187Z,19.72
2017-12-22T01:46:29.554Z,19.69
2017-12-22T01:48:57.853Z,19.70
2017-12-22T01:51:26.193Z,19.69
2017-12-22T01:53:54.494Z,19.69
2017-12-22T01:56:22.803Z,19.73
2017-12-22T01:58:51.262Z,19.71
2017-12-22T02:01:19.778Z,19.69
2017-12-22T02:03:48.299Z,19.70
2017-12-22T02:06:16.606Z,19.72
2017-12-22T02:08:44.991Z,19.72
2017-12-22T02:11:13.487Z,19.70
2017-12-22T02:13:41.791Z,19.70
2017-12-22T02:16:10.146Z,19.70
2017-12-22T02:18:38.455Z,19.70
2017-12-22T02:21:06.734Z,19.70
2017-12-22T02:23:35.019Z,19.73
2017-12-22T02:26:03.323Z,19.71
2017-12-22T02:28:31.791Z,19.71
2017-12-22T02:31:00.079Z,19.73
2017-12-22T02:33:28.545Z,19.73
2017-12-22T02:35:56.975Z,19.72
2017-12-22T02:38:25.251Z,19.75
2017-12-22T02:40:53.571Z,19.72
2017-12-22T02:43:21.817Z,19.74
2017-12-22T02:45:50.092Z,19.74
2017-12-22T02:48:18.469Z,19.71
2017-12-22T02:50:47.010Z,19.70
2017-12-22T02:53:15.960Z,19.72
2017-12-22T02:55:44.271Z,19.70
2017-12-22T02:58:12.555Z,19.73
2017-12-22T03:00:40.858Z,19.71
2017-12-22T03:03:09.203Z,19.71
2017-12-22T03:05:37.805Z,19.69
2017-12-22T03:08:06.099Z,19.69
2017-12-22T03:10:34.545Z,19.71
2017-12-22T03:13:02.846Z,19.71
2017-12-22T03:15:31.143Z,19.69
2017-12-22T03:17:59.539Z,19.69
2017-12-22T03:20:27.881Z,19.69
2017-12-22T03:22:56.184Z,19.70
2017-12-22T03:25:24.624Z,19.71
2017-12-22T03:27:53.273Z,19.71
2017-12-22T03:30:21.645Z,19.70
2017-12-22T03:32:49.949Z,19.67
2017-12-22T03:35:18.256Z,19.70
2017-12-22T03:37:46.610Z,19.68
2017-12-22T03:40:14.904Z,19.69
2017-12-22T03:42:43.171Z,19.69
2017-12-22T03:45:11.703Z,19.71
2017-12-22T03:47:42.104Z,19.68
2017-12-22T03:50:10.977Z,19.70
2017-12-22T03:52:39.254Z,19.73
2017-12-22T03:55:07.559Z,19.73
2017-12-22T03:57:35.816Z,19.68
2017-12-22T04:00:04.508Z,19.66
2017-12-22T04:02:32.967Z,19.66
2017-12-22T04:05:01.678Z,19.64
2017-12-22T04:07:30.167Z,19.81
2017-12-22T04:09:58.423Z,19.93
2017-12-22T04:12:26.799Z,20.03
2017-12-22T04:14:55.051Z,20.02
2017-12-22T04:17:23.362Z,20.07
2017-12-22T04:19:51.618Z,20.04
2017-12-22T04:22:19.895Z,20.10
2017-12-22T04:24:48.155Z,20.02
2017-12-22T04:27:16.455Z,20.09
2017-12-22T04:29:44.942Z,20.15
2017-12-22T04:32:13.214Z,20.17
2017-12-22T04:34:41.528Z,20.16
2017-12-22T04:37:09.815Z,20.19
2017-12-22T04:39:38.223Z,20.19
2017-12-22T04:42:06.966Z,20.16
2017-12-22T04:44:35.564Z,20.13
2017-12-22T04:47:03.856Z,20.17
2017-12-22T04:49:32.178Z,20.19
2017-12-22T04:52:00.479Z,20.18
2017-12-22T04:54:29.339Z,20.15
2017-12-22T04:56:57.632Z,20.16
2017-12-22T04:59:25.990Z,20.18
2017-12-22T05:01:54.268Z,20.19
2017-12-22T05:04:22.622Z,20.17
2017-12-22T05:06:50.908Z,20.14
2017-12-22T05:09:19.335Z,20.13
2017-12-22T05:11:47.814Z,20.11
2017-12-22T05:14:16.121Z,20.10
2017-12-22T05:16:44.440Z,20.10
2017-12-22T05:19:12.703Z,20.07
2017-12-22T05:21:41.029Z,20.07
2017-12-22T05:24:09.276Z,20.05
2017-12-22T05:26:37.722Z,20.08
2017-12-22T05:29:06.003Z,20.06
2017-12-22T05:31:34.350Z,20.06
2017-12-22T05:34:02.629Z,20.02
2017-12-22T05:36:30.955Z,20.04
2017-12-22T05:38:59.280Z,20.03
2017-12-22T05:41:27.571Z,20.02
2017-12-22T05:43:55.892Z,19.99
2017-12-22T05:46:24.191Z,19.99
2017-12-22T05:48:52.528Z,19.97
2017-12-22T05:51:21.707Z,19.99
2017-12-22T05:53:51.143Z,19.97
2017-12-22T05:56:19.583Z,19.98
2017-12-22T05:58:47.998Z,19.97
2017-12-22T06:01:16.739Z,19.94
2017-12-22T06:03:45.724Z,19.95
2017-12-22T06:06:15.122Z,19.96
2017-12-22T06:08:43.696Z,19.96
2017-12-22T06:11:12.098Z,19.93
2017-12-22T06:13:43.954Z,19.93
2017-12-22T06:16:16.269Z,19.89
2017-12-22T06:18:46.806Z,19.93
2017-12-22T06:21:15.725Z,19.90
2017-12-22T06:23:44.451Z,19.89
2017-12-22T06:26:12.754Z,19.90
2017-12-22T06:28:41.042Z,19.89
2017-12-22T06:31:10.435Z,19.88
2017-12-22T06:33:39.715Z,19.87
2017-12-22T06:36:08.387Z,19.87
2017-12-22T06:38:36.663Z,19.88
2017-12-22T06:41:04.958Z,19.83
2017-12-22T06:43:33.303Z,19.85
2017-12-22T06:46:01.744Z,19.85
2017-12-22T06:48:30.033Z,19.84
2017-12-22T06:50:58.384Z,19.85
2017-12-22T06:53:26.708Z,19.86
2017-12-22T06:55:55.043Z,19.88
2017-12-22T06:58:23.395Z,19.87
2017-12-22T07:00:51.692Z,19.86
2017-12-22T07:03:19.975Z,19.88
2017-12-22T07:05:48.363Z,19.90
2017-12-22T07:08:16.703Z,19.93
2017-12-22T07:10:44.999Z,19.91
2017-12-22T07:13:13.476Z,19.92
2017-12-22T07:15:41.780Z,19.93
2017-12-22T07:18:10.127Z,19.93
2017-12-22T07:20:38.419Z,19.94
2017-12-22T07:23:06.707Z,19.93
2017-12-22T07:25:35.018Z,19.96
2017-12-22T07:28:03.351Z,19.94
2017-12-22T07:30:31.635Z,19.94
2017-12-22T07:32:59.903Z,19.97
2017-12-22T07:35:28.192Z,19.96
2017-12-22T07:37:56.606Z,19.97
2017-12-22T07:40:24.928Z,19.97
2017-12-22T07:42:53.207Z,19.97
2017-12-22T07:45:21.707Z,19.97
2017-12-22T07:47:50.097Z,19.99
2017-12-22T07:50:18.435Z,20.00
2017-12-22T07:52:46.700Z,20.01
2017-12-22T07:55:14.983Z,20.03
2017-12-22T07:57:43.276Z,20.02
2017-12-22T08:00:11.560Z,20.01
2017-12-22T08:02:40.006Z,20.03
2017-12-22T08:05:08.295Z,20.02
2017-12-22T08:07:36.580Z,20.02
2017-12-22T08:10:05.092Z,20.03
2017-12-22T08:12:33.446Z,20.03
2017-12-22T08:15:01.683Z,20.06
2017-12-22T08:17:30.019Z,20.07
2017-12-22T08:19:58.312Z,20.07
2017-12-22T08:22:26.679Z,20.07
2017-12-22T08:24:54.953Z,20.07
2017-12-22T08:27:23.398Z,20.11
2017-12-22T08:29:51.695Z,20.10
2017-12-22T08:32:20.096Z,20.10
2017-12-22T08:34:48.626Z,20.09
2017-12-22T08:37:16.939Z,20.07
2017-12-22T08:39:45.214Z,20.07
2017-12-22T08:42:13.529Z,20.09
2017-12-22T08:44:42.059Z,20.08
2017-12-22T08:47:10.352Z,20.07
2017-12-22T08:49:38.719Z,20.07
2017-12-22T08:52:07.002Z,20.08
2017-12-22T08:54:35.291Z,20.10
2017-12-22T08:57:03.589Z,20.13
2017-12-22T08:59:31.851Z,20.12
2017-12-22T09:02:00.456Z,20.15
2017-12-22T09:04:28.737Z,20.12
2017-12-22T09:06:57.475Z,20.12
2017-12-22T09:09:25.772Z,20.11
2017-12-22T09:11:54.091Z,20.10
2017-12-22T09:14:22.351Z,20.13
2017-12-22T09:16:50.836Z,20.14
2017-12-22T09:19:19.107Z,20.14
2017-12-22T09:21:47.422Z,20.13
2017-12-22T09:24:15.800Z,20.18
2017-12-22T09:26:44.090Z,20.17
2017-12-22T09:29:12.438Z,20.17
2017-12-22T09:31:40.764Z,20.16
2017-12-22T09:34:09.299Z,20.15
2017-12-22T09:36:44.466Z,20.17
2017-12-22T09:39:12.746Z,20.20
2017-12-22T09:41:41.039Z,20.20
2017-12-22T09:44:09.403Z,20.17
2017-12-22T09:46:37.755Z,20.18
2017-12-22T09:49:06.103Z,20.16
2017-12-22T09:51:34.473Z,20.14
2017-12-22T09:54:02.750Z,20.12
2017-12-22T09:56:31.172Z,20.15
2017-12-22T09:58:59.454Z,20.14
2017-12-22T10:01:27.759Z,20.13
2017-12-22T10:03:56.077Z,20.13
2017-12-22T10:06:24.367Z,20.13
2017-12-22T10:08:52.628Z,20.12
2017-12-22T10:11:20.935Z,20.19
2017-12-22T10:13:49.207Z,20.23
2017-12-22T10:16:18.550Z,20.25
2017-12-22T10:18:47.666Z,20.26
2017-12-22T10:21:15.988Z,20.28
2017-12-22T10:23:44.248Z,20.28
2017-12-22T10:26:12.539Z,20.28
2017-12-22T10:28:40.831Z,20.31
2017-12-22T10:31:09.119Z,20.32
2017-12-22T10:33:37.439Z,20.30
2017-12-22T10:36:05.721Z,20.30
2017-12-22T10:38:33.999Z,20.32
2017-12-22T10:41:02.312Z,20.29
2017-12-22T10:43:30.691Z,20.27
2017-12-22T10:45:58.979Z,20.26
2017-12-22T10:48:27.268Z,20.24
2017-12-22T10:50:55.554Z,20.26
2017-12-22T10:53:23.807Z,20.27
2017-12-22T10:55:52.117Z,20.29
2017-12-22T10:58:20.488Z,20.26
2017-12-22T11:00:48.776Z,20.25
2017-12-22T11:03:17.043Z,20.28
2017-12-22T11:05:45.347Z,20.25
2017-12-22T11:08:13.767Z,20.25
2017-12-22T11:10:42.063Z,20.23
2017-12-22T11:13:10.472Z,20.23
2017-12-22T11:15:38.760Z,20.23
2017-12-22T11:18:07.087Z,20.35
2017-12-22T11:20:35.439Z,20.41
2017-12-22T11:23:03.777Z,20.40
2017-12-22T11:25:32.083Z,20.35
2017-12-22T11:28:00.374Z,20.33
2017-12-22T11:30:29.394Z,20.32
2017-12-22T11:32:57.663Z,20.33
2017-12-22T11:35:26.131Z,20.33
2017-12-22T11:37:54.451Z,20.31
2017-12-22T11:40:22.767Z,20.37
2017-12-22T11:42:51.027Z,20.35
2017-12-22T11:45:19.303Z,20.34
2017-12-22T11:47:47.739Z,20.35
2017-12-22T11:50:16.048Z,20.36
2017-12-22T11:52:44.316Z,20.35
2017-12-22T11:55:12.608Z,20.33
2017-12-22T11:57:40.867Z,20.34
2017-12-22T12:00:09.172Z,20.34
2017-12-22T12:02:37.447Z,20.31
2017-12-22T12:05:05.738Z,20.31
2017-12-22T12:07:34.111Z,20.30
2017-12-22T12:10:02.815Z,20.36
2017-12-22T12:12:31.247Z,20.41
2017-12-22T12:14:59.483Z,20.45
2017-12-22T12:17:27.834Z,20.44
2017-12-22T12:19:56.124Z,20.58
2017-12-22T12:22:24.571Z,20.63
2017-12-22T12:24:52.910Z,20.49
2017-12-22T12:27:21.342Z,20.42
2017-12-22T12:29:49.608Z,20.37
2017-12-22T12:32:17.960Z,20.36
2017-12-22T12:34:46.335Z,20.34
2017-12-22T12:37:14.664Z,20.30
2017-12-22T12:39:42.943Z,20.32
2017-12-22T12:42:11.275Z,20.35
2017-12-22T12:44:40.018Z,20.35
2017-12-22T12:47:08.444Z,20.38
2017-12-22T12:49:36.814Z,20.39
2017-12-22T12:52:05.127Z,20.36
2017-12-22T12:54:33.483Z,20.38
2017-12-22T12:57:01.876Z,20.40
2017-12-22T12:59:30.158Z,20.38
2017-12-22T13:01:58.628Z,20.39
2017-12-22T13:04:27.098Z,20.40
2017-12-22T13:06:55.591Z,20.40
2017-12-22T13:09:23.846Z,20.39
2017-12-22T13:11:52.203Z,20.39
2017-12-22T13:14:20.478Z,20.40
2017-12-22T13:16:48.771Z,20.40
2017-12-22T13:19:17.023Z,20.40
2017-12-22T13:21:45.320Z,20.39
2017-12-22T13:24:13.583Z,20.42
2017-12-22T13:26:41.860Z,20.40
2017-12-22T13:29:10.240Z,20.39
2017-12-22T13:31:38.547Z,20.39
2017-12-22T13:34:06.895Z,20.38
2017-12-22T13:36:35.200Z,20.35
2017-12-22T13:39:03.858Z,20.34
2017-12-22T13:41:32.167Z,20.33
2017-12-22T13:44:00.481Z,20.30
2017-12-22T13:46:28.771Z,20.29
2017-12-22T13:48:57.055Z,20.27
2017-12-22T13:51:25.376Z,20.28
2017-12-22T13:53:53.667Z,20.30
2017-12-22T13:56:22.127Z,20.29
2017-12-22T13:58:50.423Z,20.28
2017-12-22T14:01:18.895Z,20.28
2017-12-22T14:03:47.160Z,20.28
2017-12-22T14:06:15.978Z,20.28
2017-12-22T14:08:44.275Z,20.31
2017-12-22T14:11:12.595Z,20.32
2017-12-22T14:13:40.866Z,20.33
2017-12-22T14:16:09.143Z,20.35
2017-12-22T14:18:37.386Z,20.35
2017-12-22T14:21:05.839Z,20.34
2017-12-22T14:23:34.363Z,20.35
2017-12-22T14:26:02.671Z,20.32
2017-12-22T14:28:31.015Z,20.32
2017-12-22T14:30:59.432Z,20.30
2017-12-22T14:33:27.747Z,20.28
2017-12-22T14:35:56.075Z,20.26
2017-12-22T14:38:24.463Z,20.27
2017-12-22T14:40:52.786Z,20.25
2017-12-22T14:43:21.052Z,20.29
2017-12-22T14:45:49.329Z,20.30
2017-12-22T14:48:17.612Z,20.28
2017-12-22T14:50:45.900Z,20.27
2017-12-22T14:53:14.177Z,20.26
2017-12-22T14:55:42.611Z,20.25
2017-12-22T14:58:10.912Z,20.25
2017-12-22T15:00:39.190Z,20.24
2017-12-22T15:03:07.467Z,20.24
2017-12-22T15:05:35.915Z,20.24
2017-12-22T15:08:04.403Z,20.24
2017-12-22T15:10:32.879Z,20.24
2017-12-22T15:13:01.360Z,20.22
2017-12-22T15:15:29.683Z,20.21
2017-12-22T15:18:00.454Z,20.21
2017-12-22T15:20:30.591Z,20.19
2017-12-22T15:22:59.096Z,20.20
2017-12-22T15:25:27.424Z,20.21
2017-12-22T15:27:55.699Z,20.17
2017-12-22T15:30:26.502Z,20.16
2017-12-22T15:32:54.890Z,20.15
2017-12-22T15:35:23.193Z,20.13
2017-12-22T15:37:51.459Z,20.13
2017-12-22T15:40:19.754Z,20.12
2017-12-22T15:42:48.019Z,20.12
2017-12-22T15:45:16.307Z,20.10
2017-12-22T15:47:44.554Z,20.09
2017-12-22T15:50:12.861Z,20.12
2017-12-22T15:52:41.167Z,20.09
2017-12-22T15:55:09.635Z,20.08
2017-12-22T15:57:37.951Z,20.09
2017-12-22T16:00:06.987Z,20.07
2017-12-22T16:02:35.295Z,20.07
2017-12-22T16:05:03.599Z,20.09
2017-12-22T16:07:31.926Z,20.06
2017-12-22T16:10:00.277Z,20.07
2017-12-22T16:12:28.591Z,20.04
2017-12-22T16:14:56.852Z,20.07
2017-12-22T16:17:25.170Z,20.07
2017-12-22T16:19:53.410Z,20.06
2017-12-22T16:22:21.737Z,20.06
2017-12-22T16:24:49.997Z,20.07
2017-12-22T16:27:18.687Z,20.03
2017-12-22T16:29:47.108Z,20.05
2017-12-22T16:32:15.423Z,20.05
2017-12-22T16:34:43.719Z,20.03
2017-12-22T16:37:12.056Z,20.02
2017-12-22T16:39:40.571Z,20.03
2017-12-22T16:42:08.923Z,20.04
2017-12-22T16:44:37.221Z,19.99
2017-12-22T16:47:05.569Z,20.03
2017-12-22T16:49:33.857Z,20.00
2017-12-22T16:52:02.182Z,19.97
2017-12-22T16:54:30.476Z,19.99
2017-12-22T16:56:58.994Z,20.00
2017-12-22T16:59:27.279Z,19.97
2017-12-22T17:01:55.630Z,19.96
2017-12-22T17:04:24.011Z,19.97
2017-12-22T17:06:52.305Z,19.96
2017-12-22T17:09:20.571Z,19.95
2017-12-22T17:11:48.865Z,19.96
2017-12-22T17:14:17.146Z,19.95
2017-12-22T17:16:45.479Z,19.98
2017-12-22T17:19:13.785Z,19.96
2017-12-22T17:21:42.098Z,19.97
2017-12-22T17:24:10.367Z,19.96
2017-12-22T17:26:38.670Z,19.96
2017-12-22T17:29:07.008Z,19.95
2017-12-22T17:31:35.314Z,19.94
2017-12-22T17:34:03.732Z,19.94
2017-12-22T17:36:32.042Z,19.92
2017-12-22T17:39:00.323Z,19.90
2017-12-22T17:41:30.889Z,19.89
2017-12-22T17:44:00.259Z,19.92
2017-12-22T17:46:29.258Z,19.93
2017-12-22T17:48:57.630Z,19.93
2017-12-22T17:51:26.119Z,19.91
2017-12-22T17:53:54.634Z,19.92
2017-12-22T17:56:23.976Z,19.90
2017-12-22T17:58:52.432Z,19.89
2017-12-22T18:01:21.011Z,19.90
2017-12-22T18:03:49.408Z,19.89
2017-12-22T18:06:19.059Z,19.88
2017-12-22T18:08:50.345Z,19.89
2017-12-22T18:11:22.198Z,19.86
2017-12-22T18:13:50.551Z,19.85
2017-12-22T18:16:19.527Z,19.85
2017-12-22T18:18:48.338Z,19.87
2017-12-22T18:21:17.239Z,19.86
2017-12-22T18:23:45.566Z,19.87
2017-12-22T18:26:13.853Z,19.85
2017-12-22T18:28:42.267Z,19.84
2017-12-22T18:31:10.579Z,19.84
2017-12-22T18:33:39.403Z,19.85
2017-12-22T18:36:07.970Z,19.84
2017-12-22T18:38:36.498Z,19.83
2017-12-22T18:41:04.800Z,19.81
2017-12-22T18:43:33.187Z,19.82
2017-12-22T18:46:01.943Z,19.81
2017-12-22T18:48:30.312Z,19.82
2017-12-22T18:50:58.618Z,19.80
2017-12-22T18:53:27.098Z,19.81
2017-12-22T18:55:55.393Z,19.79
2017-12-22T18:58:23.699Z,19.82
2017-12-22T19:00:52.456Z,19.80
2017-12-22T19:03:30.386Z,19.77
2017-12-22T19:05:58.783Z,19.77
2017-12-22T19:08:27.091Z,19.78
2017-12-22T19:10:55.407Z,19.79
2017-12-22T19:13:23.672Z,19.80
2017-12-22T19:15:56.189Z,19.79
2017-12-22T19:18:27.672Z,19.79
2017-12-22T19:20:58.803Z,19.75
2017-12-22T19:23:28.035Z,19.76
2017-12-22T19:25:57.354Z,19.78
2017-12-22T19:28:26.965Z,19.77
2017-12-22T19:30:55.295Z,19.75
2017-12-22T19:33:23.743Z,19.79
2017-12-22T19:35:52.091Z,19.77
2017-12-22T19:38:20.355Z,19.78
2017-12-22T19:40:48.675Z,19.76
2017-12-22T19:43:16.933Z,19.78
2017-12-22T19:45:46.237Z,19.78
2017-12-22T19:48:17.302Z,19.77
2017-12-22T19:50:46.539Z,19.74
2017-12-22T19:53:15.003Z,19.75
2017-12-22T19:55:43.337Z,19.70
2017-12-22T19:58:11.620Z,19.70
2017-12-22T20:00:39.935Z,19.74
2017-12-22T20:03:17.481Z,19.75
2017-12-22T20:05:45.827Z,19.78
2017-12-22T20:08:14.129Z,19.77
2017-12-22T20:10:42.502Z,19.76
2017-12-22T20:13:10.765Z,19.77
2017-12-22T20:15:39.065Z,19.77
2017-12-22T20:18:07.507Z,19.76
2017-12-22T20:20:35.805Z,19.88
2017-12-22T20:23:04.172Z,19.99
2017-12-22T20:25:32.648Z,20.07
2017-12-22T20:28:01.470Z,20.13
2017-12-22T20:30:30.177Z,20.11
2017-12-22T20:32:58.639Z,20.13
2017-12-22T20:35:27.362Z,20.12
2017-12-22T20:37:55.627Z,20.08
2017-12-22T20:40:23.907Z,20.10
2017-12-22T20:42:52.171Z,20.11
2017-12-22T20:45:23.571Z,20.13
2017-12-22T20:47:52.531Z,20.13
2017-12-22T20:50:20.829Z,20.15
2017-12-22T20:52:49.568Z,20.16
2017-12-22T20:55:18.512Z,20.15
2017-12-22T20:57:47.100Z,20.18
2017-12-22T21:00:15.950Z,20.18
2017-12-22T21:02:44.348Z,20.14
2017-12-22T21:05:12.739Z,20.12
2017-12-22T21:07:41.016Z,20.16
2017-12-22T21:10:09.315Z,20.16
2017-12-22T21:12:38.015Z,20.21
2017-12-22T21:15:06.356Z,20.25
2017-12-22T21:17:36.928Z,20.26
2017-12-22T21:20:06.351Z,20.25
2017-12-22T21:22:35.719Z,20.24
2017-12-22T21:25:04.680Z,20.21
2017-12-22T21:27:34.020Z,20.21
2017-12-22T21:30:03.207Z,20.19
2017-12-22T21:32:31.979Z,20.17
2017-12-22T21:35:00.341Z,20.14
2017-12-22T21:37:29.592Z,20.16
2017-12-22T21:39:57.883Z,20.15
2017-12-22T21:42:26.222Z,20.17
2017-12-22T21:44:55.320Z,20.13
2017-12-22T21:47:24.133Z,20.13
2017-12-22T21:49:53.222Z,20.10
2017-12-22T21:52:21.619Z,20.09
2017-12-22T21:54:51.392Z,20.08
2017-12-22T21:57:19.790Z,20.09
2017-12-22T21:59:48.064Z,20.09
2017-12-22T22:02:16.484Z,20.09
2017-12-22T22:04:44.782Z,20.07
2017-12-22T22:07:13.130Z,20.09
2017-12-22T22:09:41.436Z,20.08
2017-12-22T22:12:09.779Z,20.08
2017-12-22T22:14:38.070Z,20.11
2017-12-22T22:17:06.515Z,20.13
2017-12-22T22:19:35.044Z,20.08
2017-12-22T22:22:03.496Z,20.08
2017-12-22T22:24:31.754Z,20.09
2017-12-22T22:27:00.128Z,20.09
2017-12-22T22:29:28.490Z,20.09
2017-12-22T22:31:56.939Z,20.06
2017-12-22T22:34:25.214Z,20.09
2017-12-22T22:36:55.803Z,20.08
2017-12-22T22:39:26.481Z,20.08
2017-12-22T22:41:55.765Z,20.05
2017-12-22T22:44:24.144Z,20.08
2017-12-22T22:46:52.651Z,20.07
2017-12-22T22:49:20.918Z,20.08
2017-12-22T22:51:49.271Z,20.05
2017-12-22T22:54:17.660Z,20.05
2017-12-22T22:56:46.036Z,20.03
2017-12-22T22:59:14.347Z,20.05
2017-12-22T23:01:42.680Z,20.03
2017-12-22T23:04:16.644Z,20.05
2017-12-22T23:06:45.040Z,20.02
2017-12-22T23:09:14.169Z,20.01
2017-12-22T23:11:43.171Z,20.00
2017-12-22T23:14:11.451Z,20.00
2017-12-22T23:16:40.331Z,19.99
2017-12-22T23:19:08.712Z,20.01
2017-12-22T23:21:37.230Z,19.96
2017-12-22T23:24:05.654Z,20.00
2017-12-22T23:26:33.999Z,19.98
2017-12-22T23:29:02.443Z,19.99
2017-12-22T23:31:39.699Z,19.98
2017-12-22T23:34:08.212Z,19.98
2017-12-22T23:36:36.530Z,19.99
2017-12-22T23:39:05.564Z,20.00
2017-12-22T23:41:33.863Z,19.99
2017-12-22T23:44:06.036Z,19.99
2017-12-22T23:46:34.923Z,20.00
2017-12-22T23:49:03.336Z,19.98
2017-12-22T23:51:31.659Z,19.98
2017-12-22T23:54:00.150Z,20.02
2017-12-22T23:56:28.675Z,19.99
2017-12-22T23:58:57.878Z,19.99
